sensor_id;sensor_type;location;lat;lon;timestamp;P1;durP1;ratioP1;P2;durP2;ratioP2
7338;SDS011;33747;49.524;8.390;2024-03-02T00:01:06;19.30;;;11.15;;
7338;SDS011;33747;49.524;8.390;2024-03-02T00:03:32;28.90;;;11.45;;
7338;SDS011;33747;49.524;8.390;2024-03-02T00:05:58;16.38;;;9.70;;
7338;SDS011;33747;49.524;8.390;2024-03-02T00:08:24;19.77;;;11.68;;
7338;SDS011;33747;49.524;8.390;2024-03-02T00:10:50;23.30;;;10.98;;
7338;SDS011;33747;49.524;8.390;2024-03-02T00:13:16;18.05;;;10.73;;
7338;SDS011;33747;49.524;8.390;2024-03-02T00:18:11;18.73;;;11.43;;
7338;SDS011;33747;49.524;8.390;2024-03-02T00:20:40;16.63;;;11.70;;
7338;SDS011;33747;49.524;8.390;2024-03-02T00:23:06;18.85;;;13.23;;
7338;SDS011;33747;49.524;8.390;2024-03-02T00:25:40;18.85;;;11.40;;
7338;SDS011;33747;49.524;8.390;2024-03-02T00:28:50;16.23;;;10.88;;
7338;SDS011;33747;49.524;8.390;2024-03-02T00:33:37;16.75;;;12.20;;
7338;SDS011;33747;49.524;8.390;2024-03-02T00:36:05;16.92;;;11.48;;
7338;SDS011;33747;49.524;8.390;2024-03-02T00:38:32;22.95;;;12.20;;
7338;SDS011;33747;49.524;8.390;2024-03-02T00:41:06;20.48;;;12.18;;
7338;SDS011;33747;49.524;8.390;2024-03-02T00:45:57;18.23;;;13.02;;
7338;SDS011;33747;49.524;8.390;2024-03-02T00:48:23;17.55;;;12.05;;
7338;SDS011;33747;49.524;8.390;2024-03-02T00:50:52;23.42;;;13.35;;
7338;SDS011;33747;49.524;8.390;2024-03-02T00:53:17;19.85;;;12.57;;
7338;SDS011;33747;49.524;8.390;2024-03-02T00:55:48;19.98;;;12.68;;
7338;SDS011;33747;49.524;8.390;2024-03-02T00:58:14;20.73;;;12.38;;
7338;SDS011;33747;49.524;8.390;2024-03-02T01:00:39;22.05;;;12.15;;
7338;SDS011;33747;49.524;8.390;2024-03-02T01:03:04;17.65;;;12.45;;
7338;SDS011;33747;49.524;8.390;2024-03-02T01:05:32;26.20;;;13.65;;
7338;SDS011;33747;49.524;8.390;2024-03-02T01:08:00;18.98;;;13.35;;
7338;SDS011;33747;49.524;8.390;2024-03-02T01:10:25;22.52;;;12.02;;
7338;SDS011;33747;49.524;8.390;2024-03-02T01:12:51;25.52;;;13.15;;
7338;SDS011;33747;49.524;8.390;2024-03-02T01:15:16;22.20;;;13.32;;
7338;SDS011;33747;49.524;8.390;2024-03-02T01:17:43;19.92;;;12.13;;
7338;SDS011;33747;49.524;8.390;2024-03-02T01:20:09;23.63;;;13.32;;
7338;SDS011;33747;49.524;8.390;2024-03-02T01:22:34;20.88;;;13.73;;
7338;SDS011;33747;49.524;8.390;2024-03-02T01:25:00;21.45;;;13.50;;
7338;SDS011;33747;49.524;8.390;2024-03-02T01:27:26;22.10;;;14.18;;
7338;SDS011;33747;49.524;8.390;2024-03-02T01:29:51;22.65;;;14.35;;
7338;SDS011;33747;49.524;8.390;2024-03-02T01:32:17;20.65;;;14.70;;
7338;SDS011;33747;49.524;8.390;2024-03-02T01:34:43;19.10;;;13.48;;
7338;SDS011;33747;49.524;8.390;2024-03-02T01:37:08;22.10;;;13.65;;
7338;SDS011;33747;49.524;8.390;2024-03-02T01:39:35;23.77;;;13.98;;
7338;SDS011;33747;49.524;8.390;2024-03-02T01:42:00;21.40;;;14.52;;
7338;SDS011;33747;49.524;8.390;2024-03-02T01:44:25;21.35;;;14.55;;
7338;SDS011;33747;49.524;8.390;2024-03-02T01:46:51;24.52;;;14.10;;
7338;SDS011;33747;49.524;8.390;2024-03-02T01:49:16;20.02;;;13.52;;
7338;SDS011;33747;49.524;8.390;2024-03-02T01:51:41;27.30;;;14.57;;
7338;SDS011;33747;49.524;8.390;2024-03-02T01:54:07;25.25;;;14.65;;
7338;SDS011;33747;49.524;8.390;2024-03-02T01:56:33;27.77;;;14.55;;
7338;SDS011;33747;49.524;8.390;2024-03-02T01:58:59;23.67;;;14.70;;
7338;SDS011;33747;49.524;8.390;2024-03-02T02:01:24;22.75;;;14.80;;
7338;SDS011;33747;49.524;8.390;2024-03-02T02:03:49;23.85;;;14.73;;
7338;SDS011;33747;49.524;8.390;2024-03-02T02:06:15;30.02;;;16.25;;
7338;SDS011;33747;49.524;8.390;2024-03-02T02:08:40;26.02;;;15.00;;
7338;SDS011;33747;49.524;8.390;2024-03-02T02:11:06;23.15;;;14.88;;
7338;SDS011;33747;49.524;8.390;2024-03-02T02:13:32;24.42;;;15.32;;
7338;SDS011;33747;49.524;8.390;2024-03-02T02:16:07;21.92;;;14.73;;
7338;SDS011;33747;49.524;8.390;2024-03-02T02:18:32;22.52;;;15.70;;
7338;SDS011;33747;49.524;8.390;2024-03-02T02:20:58;25.35;;;14.68;;
7338;SDS011;33747;49.524;8.390;2024-03-02T02:23:23;18.77;;;13.25;;
7338;SDS011;33747;49.524;8.390;2024-03-02T02:25:49;25.23;;;14.10;;
7338;SDS011;33747;49.524;8.390;2024-03-02T02:28:14;20.55;;;13.23;;
7338;SDS011;33747;49.524;8.390;2024-03-02T02:30:39;21.75;;;13.75;;
7338;SDS011;33747;49.524;8.390;2024-03-02T02:33:05;20.52;;;13.75;;
7338;SDS011;33747;49.524;8.390;2024-03-02T02:35:30;23.95;;;13.63;;
7338;SDS011;33747;49.524;8.390;2024-03-02T02:37:55;27.08;;;14.98;;
7338;SDS011;33747;49.524;8.390;2024-03-02T02:40:22;19.65;;;12.98;;
7338;SDS011;33747;49.524;8.390;2024-03-02T02:42:47;22.88;;;13.68;;
7338;SDS011;33747;49.524;8.390;2024-03-02T02:45:13;24.85;;;14.68;;
7338;SDS011;33747;49.524;8.390;2024-03-02T02:47:39;22.40;;;13.35;;
7338;SDS011;33747;49.524;8.390;2024-03-02T02:50:08;21.77;;;13.93;;
7338;SDS011;33747;49.524;8.390;2024-03-02T02:52:34;24.90;;;13.93;;
7338;SDS011;33747;49.524;8.390;2024-03-02T02:55:02;21.20;;;14.65;;
7338;SDS011;33747;49.524;8.390;2024-03-02T02:57:28;19.60;;;13.27;;
7338;SDS011;33747;49.524;8.390;2024-03-02T02:59:56;22.30;;;13.52;;
7338;SDS011;33747;49.524;8.390;2024-03-02T03:02:21;22.30;;;14.55;;
7338;SDS011;33747;49.524;8.390;2024-03-02T03:04:46;27.52;;;15.05;;
7338;SDS011;33747;49.524;8.390;2024-03-02T03:07:12;21.80;;;12.85;;
7338;SDS011;33747;49.524;8.390;2024-03-02T03:09:37;23.73;;;14.23;;
7338;SDS011;33747;49.524;8.390;2024-03-02T03:12:04;34.65;;;13.85;;
7338;SDS011;33747;49.524;8.390;2024-03-02T03:14:29;22.63;;;14.20;;
7338;SDS011;33747;49.524;8.390;2024-03-02T03:16:55;23.00;;;13.70;;
7338;SDS011;33747;49.524;8.390;2024-03-02T03:19:20;21.90;;;13.73;;
7338;SDS011;33747;49.524;8.390;2024-03-02T03:21:46;19.38;;;13.45;;
7338;SDS011;33747;49.524;8.390;2024-03-02T03:24:11;20.38;;;14.23;;
7338;SDS011;33747;49.524;8.390;2024-03-02T03:26:37;28.02;;;13.75;;
7338;SDS011;33747;49.524;8.390;2024-03-02T03:29:02;22.67;;;13.60;;
7338;SDS011;33747;49.524;8.390;2024-03-02T03:31:28;27.58;;;13.93;;
7338;SDS011;33747;49.524;8.390;2024-03-02T03:33:54;24.02;;;14.32;;
7338;SDS011;33747;49.524;8.390;2024-03-02T03:36:19;21.02;;;14.43;;
7338;SDS011;33747;49.524;8.390;2024-03-02T03:38:44;21.75;;;14.32;;
7338;SDS011;33747;49.524;8.390;2024-03-02T03:41:10;26.15;;;13.65;;
7338;SDS011;33747;49.524;8.390;2024-03-02T03:43:36;21.73;;;12.95;;
7338;SDS011;33747;49.524;8.390;2024-03-02T03:46:02;22.73;;;14.63;;
7338;SDS011;33747;49.524;8.390;2024-03-02T03:48:27;21.13;;;13.43;;
7338;SDS011;33747;49.524;8.390;2024-03-02T03:50:55;21.33;;;13.70;;
7338;SDS011;33747;49.524;8.390;2024-03-02T03:53:21;22.15;;;14.02;;
7338;SDS011;33747;49.524;8.390;2024-03-02T03:55:47;19.73;;;12.82;;
7338;SDS011;33747;49.524;8.390;2024-03-02T03:58:14;22.08;;;13.35;;
7338;SDS011;33747;49.524;8.390;2024-03-02T04:00:41;19.80;;;13.25;;
7338;SDS011;33747;49.524;8.390;2024-03-02T04:03:07;19.67;;;13.02;;
7338;SDS011;33747;49.524;8.390;2024-03-02T04:05:33;19.35;;;12.43;;
7338;SDS011;33747;49.524;8.390;2024-03-02T04:07:58;25.45;;;14.07;;
7338;SDS011;33747;49.524;8.390;2024-03-02T04:10:25;26.17;;;12.65;;
7338;SDS011;33747;49.524;8.390;2024-03-02T04:12:52;21.55;;;13.32;;
7338;SDS011;33747;49.524;8.390;2024-03-02T04:15:17;18.67;;;12.57;;
7338;SDS011;33747;49.524;8.390;2024-03-02T04:17:43;21.15;;;11.75;;
7338;SDS011;33747;49.524;8.390;2024-03-02T04:20:09;24.77;;;13.63;;
7338;SDS011;33747;49.524;8.390;2024-03-02T04:22:37;17.65;;;11.98;;
7338;SDS011;33747;49.524;8.390;2024-03-02T04:25:03;19.65;;;12.27;;
7338;SDS011;33747;49.524;8.390;2024-03-02T04:27:29;21.00;;;13.45;;
7338;SDS011;33747;49.524;8.390;2024-03-02T04:29:55;20.02;;;12.43;;
7338;SDS011;33747;49.524;8.390;2024-03-02T04:32:20;16.90;;;11.98;;
7338;SDS011;33747;49.524;8.390;2024-03-02T04:34:46;21.63;;;12.80;;
7338;SDS011;33747;49.524;8.390;2024-03-02T04:37:11;23.02;;;12.40;;
7338;SDS011;33747;49.524;8.390;2024-03-02T04:39:37;20.58;;;13.18;;
7338;SDS011;33747;49.524;8.390;2024-03-02T04:42:04;21.27;;;13.32;;
7338;SDS011;33747;49.524;8.390;2024-03-02T04:44:29;27.70;;;12.63;;
7338;SDS011;33747;49.524;8.390;2024-03-02T04:46:56;19.13;;;12.65;;
7338;SDS011;33747;49.524;8.390;2024-03-02T04:49:21;20.90;;;13.05;;
7338;SDS011;33747;49.524;8.390;2024-03-02T04:51:46;20.45;;;13.10;;
7338;SDS011;33747;49.524;8.390;2024-03-02T04:54:12;20.35;;;12.88;;
7338;SDS011;33747;49.524;8.390;2024-03-02T04:56:39;22.30;;;13.65;;
7338;SDS011;33747;49.524;8.390;2024-03-02T04:59:14;18.60;;;11.82;;
7338;SDS011;33747;49.524;8.390;2024-03-02T05:01:40;22.25;;;13.73;;
7338;SDS011;33747;49.524;8.390;2024-03-02T05:04:05;23.70;;;12.48;;
7338;SDS011;33747;49.524;8.390;2024-03-02T05:06:32;18.98;;;12.50;;
7338;SDS011;33747;49.524;8.390;2024-03-02T05:08:57;18.83;;;12.75;;
7338;SDS011;33747;49.524;8.390;2024-03-02T05:11:22;21.80;;;13.48;;
7338;SDS011;33747;49.524;8.390;2024-03-02T05:14:11;19.30;;;12.93;;
7338;SDS011;33747;49.524;8.390;2024-03-02T05:16:36;22.05;;;12.25;;
7338;SDS011;33747;49.524;8.390;2024-03-02T05:19:03;19.83;;;12.27;;
7338;SDS011;33747;49.524;8.390;2024-03-02T05:21:31;22.25;;;12.82;;
7338;SDS011;33747;49.524;8.390;2024-03-02T05:23:57;18.95;;;12.25;;
7338;SDS011;33747;49.524;8.390;2024-03-02T05:26:22;16.98;;;12.45;;
7338;SDS011;33747;49.524;8.390;2024-03-02T05:28:47;18.70;;;12.05;;
7338;SDS011;33747;49.524;8.390;2024-03-02T05:31:16;20.60;;;12.60;;
7338;SDS011;33747;49.524;8.390;2024-03-02T05:33:42;17.73;;;11.40;;
7338;SDS011;33747;49.524;8.390;2024-03-02T05:36:08;19.48;;;12.70;;
7338;SDS011;33747;49.524;8.390;2024-03-02T05:38:37;20.08;;;12.10;;
7338;SDS011;33747;49.524;8.390;2024-03-02T05:41:02;16.83;;;11.95;;
7338;SDS011;33747;49.524;8.390;2024-03-02T05:43:28;18.75;;;12.07;;
7338;SDS011;33747;49.524;8.390;2024-03-02T05:45:53;17.77;;;11.95;;
7338;SDS011;33747;49.524;8.390;2024-03-02T05:48:19;18.60;;;11.98;;
7338;SDS011;33747;49.524;8.390;2024-03-02T05:50:44;19.77;;;12.60;;
7338;SDS011;33747;49.524;8.390;2024-03-02T05:53:10;20.98;;;11.95;;
7338;SDS011;33747;49.524;8.390;2024-03-02T05:55:36;17.67;;;12.20;;
7338;SDS011;33747;49.524;8.390;2024-03-02T05:58:01;18.00;;;11.70;;
7338;SDS011;33747;49.524;8.390;2024-03-02T06:00:31;17.10;;;11.82;;
7338;SDS011;33747;49.524;8.390;2024-03-02T06:02:56;14.95;;;11.40;;
7338;SDS011;33747;49.524;8.390;2024-03-02T06:05:22;18.17;;;12.13;;
7338;SDS011;33747;49.524;8.390;2024-03-02T06:07:47;17.80;;;12.15;;
7338;SDS011;33747;49.524;8.390;2024-03-02T06:10:13;16.38;;;12.02;;
7338;SDS011;33747;49.524;8.390;2024-03-02T06:12:39;19.23;;;12.43;;
7338;SDS011;33747;49.524;8.390;2024-03-02T06:15:04;18.02;;;12.07;;
7338;SDS011;33747;49.524;8.390;2024-03-02T06:17:30;16.33;;;11.80;;
7338;SDS011;33747;49.524;8.390;2024-03-02T06:19:55;19.90;;;11.93;;
7338;SDS011;33747;49.524;8.390;2024-03-02T06:22:22;16.83;;;11.45;;
7338;SDS011;33747;49.524;8.390;2024-03-02T06:24:50;16.88;;;11.38;;
7338;SDS011;33747;49.524;8.390;2024-03-02T06:27:15;18.92;;;12.13;;
7338;SDS011;33747;49.524;8.390;2024-03-02T06:29:41;17.25;;;11.65;;
7338;SDS011;33747;49.524;8.390;2024-03-02T06:32:08;18.77;;;11.82;;
7338;SDS011;33747;49.524;8.390;2024-03-02T06:34:33;17.65;;;11.80;;
7338;SDS011;33747;49.524;8.390;2024-03-02T06:36:58;18.40;;;11.57;;
7338;SDS011;33747;49.524;8.390;2024-03-02T06:39:24;17.35;;;11.13;;
7338;SDS011;33747;49.524;8.390;2024-03-02T06:41:50;17.80;;;12.43;;
7338;SDS011;33747;49.524;8.390;2024-03-02T06:44:16;21.60;;;14.02;;
7338;SDS011;33747;49.524;8.390;2024-03-02T06:46:41;21.23;;;14.52;;
7338;SDS011;33747;49.524;8.390;2024-03-02T06:49:07;22.27;;;14.57;;
7338;SDS011;33747;49.524;8.390;2024-03-02T06:51:35;19.13;;;13.68;;
7338;SDS011;33747;49.524;8.390;2024-03-02T06:54:00;24.52;;;14.90;;
7338;SDS011;33747;49.524;8.390;2024-03-02T06:56:26;18.85;;;12.82;;
7338;SDS011;33747;49.524;8.390;2024-03-02T06:58:52;16.67;;;11.63;;
7338;SDS011;33747;49.524;8.390;2024-03-02T07:01:18;22.65;;;13.32;;
7338;SDS011;33747;49.524;8.390;2024-03-02T07:03:45;20.48;;;13.20;;
7338;SDS011;33747;49.524;8.390;2024-03-02T07:06:10;17.92;;;11.85;;
7338;SDS011;33747;49.524;8.390;2024-03-02T07:08:35;16.70;;;11.02;;
7338;SDS011;33747;49.524;8.390;2024-03-02T07:11:01;22.13;;;12.80;;
7338;SDS011;33747;49.524;8.390;2024-03-02T07:13:27;20.10;;;13.23;;
7338;SDS011;33747;49.524;8.390;2024-03-02T07:15:52;19.30;;;13.68;;
7338;SDS011;33747;49.524;8.390;2024-03-02T07:18:38;21.70;;;14.45;;
7338;SDS011;33747;49.524;8.390;2024-03-02T07:21:09;17.40;;;13.57;;
7338;SDS011;33747;49.524;8.390;2024-03-02T07:23:35;19.23;;;13.20;;
7338;SDS011;33747;49.524;8.390;2024-03-02T07:26:00;19.88;;;12.93;;
7338;SDS011;33747;49.524;8.390;2024-03-02T07:28:26;17.35;;;12.77;;
7338;SDS011;33747;49.524;8.390;2024-03-02T07:31:02;17.90;;;12.63;;
7338;SDS011;33747;49.524;8.390;2024-03-02T07:33:29;20.08;;;11.55;;
7338;SDS011;33747;49.524;8.390;2024-03-02T07:35:58;17.05;;;11.95;;
7338;SDS011;33747;49.524;8.390;2024-03-02T07:38:27;22.48;;;12.15;;
7338;SDS011;33747;49.524;8.390;2024-03-02T07:40:53;16.80;;;11.05;;
7338;SDS011;33747;49.524;8.390;2024-03-02T07:43:20;18.13;;;10.40;;
7338;SDS011;33747;49.524;8.390;2024-03-02T07:45:46;14.93;;;10.27;;
7338;SDS011;33747;49.524;8.390;2024-03-02T07:48:13;17.77;;;10.88;;
7338;SDS011;33747;49.524;8.390;2024-03-02T07:50:39;18.42;;;9.65;;
7338;SDS011;33747;49.524;8.390;2024-03-02T07:53:04;14.80;;;9.25;;
7338;SDS011;33747;49.524;8.390;2024-03-02T07:55:30;14.80;;;9.68;;
7338;SDS011;33747;49.524;8.390;2024-03-02T07:57:56;15.40;;;9.18;;
7338;SDS011;33747;49.524;8.390;2024-03-02T08:00:22;12.52;;;8.95;;
7338;SDS011;33747;49.524;8.390;2024-03-02T08:02:48;11.68;;;9.43;;
7338;SDS011;33747;49.524;8.390;2024-03-02T08:05:15;11.23;;;8.48;;
7338;SDS011;33747;49.524;8.390;2024-03-02T08:07:41;12.32;;;8.48;;
7338;SDS011;33747;49.524;8.390;2024-03-02T08:10:06;12.77;;;8.63;;
7338;SDS011;33747;49.524;8.390;2024-03-02T08:12:32;10.00;;;7.85;;
7338;SDS011;33747;49.524;8.390;2024-03-02T08:14:57;11.05;;;7.40;;
7338;SDS011;33747;49.524;8.390;2024-03-02T08:17:23;12.32;;;7.28;;
7338;SDS011;33747;49.524;8.390;2024-03-02T08:19:48;8.60;;;6.68;;
7338;SDS011;33747;49.524;8.390;2024-03-02T08:22:14;9.20;;;6.75;;
7338;SDS011;33747;49.524;8.390;2024-03-02T08:24:40;12.40;;;7.40;;
7338;SDS011;33747;49.524;8.390;2024-03-02T08:27:05;10.77;;;7.18;;
7338;SDS011;33747;49.524;8.390;2024-03-02T08:29:31;9.55;;;6.63;;
7338;SDS011;33747;49.524;8.390;2024-03-02T08:31:56;11.70;;;6.65;;
7338;SDS011;33747;49.524;8.390;2024-03-02T08:34:21;7.38;;;5.47;;
7338;SDS011;33747;49.524;8.390;2024-03-02T08:36:47;8.85;;;6.00;;
7338;SDS011;33747;49.524;8.390;2024-03-02T08:39:12;11.02;;;5.85;;
7338;SDS011;33747;49.524;8.390;2024-03-02T08:41:41;25.08;;;7.38;;
7338;SDS011;33747;49.524;8.390;2024-03-02T08:44:08;8.07;;;5.28;;
7338;SDS011;33747;49.524;8.390;2024-03-02T08:46:33;6.90;;;5.53;;
7338;SDS011;33747;49.524;8.390;2024-03-02T08:48:59;7.80;;;6.00;;
7338;SDS011;33747;49.524;8.390;2024-03-02T08:51:24;10.55;;;6.05;;
7338;SDS011;33747;49.524;8.390;2024-03-02T08:53:50;8.25;;;6.07;;
7338;SDS011;33747;49.524;8.390;2024-03-02T08:56:15;6.78;;;5.05;;
7338;SDS011;33747;49.524;8.390;2024-03-02T08:58:42;11.80;;;6.50;;
7338;SDS011;33747;49.524;8.390;2024-03-02T09:01:08;7.15;;;5.68;;
7338;SDS011;33747;49.524;8.390;2024-03-02T09:03:34;8.43;;;5.85;;
7338;SDS011;33747;49.524;8.390;2024-03-02T09:06:00;8.27;;;5.85;;
7338;SDS011;33747;49.524;8.390;2024-03-02T09:08:25;7.65;;;6.03;;
7338;SDS011;33747;49.524;8.390;2024-03-02T09:10:51;7.90;;;6.35;;
7338;SDS011;33747;49.524;8.390;2024-03-02T09:13:16;10.10;;;7.10;;
7338;SDS011;33747;49.524;8.390;2024-03-02T09:15:43;9.23;;;7.10;;
7338;SDS011;33747;49.524;8.390;2024-03-02T09:18:09;8.88;;;6.57;;
7338;SDS011;33747;49.524;8.390;2024-03-02T09:20:35;12.52;;;6.45;;
7338;SDS011;33747;49.524;8.390;2024-03-02T09:23:00;8.57;;;6.35;;
7338;SDS011;33747;49.524;8.390;2024-03-02T09:25:25;9.32;;;7.43;;
7338;SDS011;33747;49.524;8.390;2024-03-02T09:27:51;8.43;;;6.38;;
7338;SDS011;33747;49.524;8.390;2024-03-02T09:30:16;9.50;;;6.20;;
7338;SDS011;33747;49.524;8.390;2024-03-02T09:32:43;8.43;;;5.90;;
7338;SDS011;33747;49.524;8.390;2024-03-02T09:35:08;9.20;;;6.28;;
7338;SDS011;33747;49.524;8.390;2024-03-02T09:37:35;10.85;;;6.80;;
7338;SDS011;33747;49.524;8.390;2024-03-02T09:40:01;9.95;;;6.40;;
7338;SDS011;33747;49.524;8.390;2024-03-02T09:42:26;7.65;;;5.68;;
7338;SDS011;33747;49.524;8.390;2024-03-02T09:44:52;8.02;;;5.15;;
7338;SDS011;33747;49.524;8.390;2024-03-02T09:47:17;6.60;;;5.35;;
7338;SDS011;33747;49.524;8.390;2024-03-02T09:49:44;7.28;;;5.10;;
7338;SDS011;33747;49.524;8.390;2024-03-02T09:52:11;6.53;;;4.90;;
7338;SDS011;33747;49.524;8.390;2024-03-02T09:54:37;5.40;;;4.90;;
7338;SDS011;33747;49.524;8.390;2024-03-02T09:57:03;6.03;;;5.25;;
7338;SDS011;33747;49.524;8.390;2024-03-02T09:59:29;8.45;;;5.45;;
7338;SDS011;33747;49.524;8.390;2024-03-02T10:02:04;7.13;;;5.18;;
7338;SDS011;33747;49.524;8.390;2024-03-02T10:04:32;15.10;;;5.88;;
7338;SDS011;33747;49.524;8.390;2024-03-02T10:07:14;9.10;;;5.40;;
7338;SDS011;33747;49.524;8.390;2024-03-02T10:09:46;9.05;;;6.50;;
7338;SDS011;33747;49.524;8.390;2024-03-02T10:12:14;7.25;;;5.82;;
7338;SDS011;33747;49.524;8.390;2024-03-02T10:14:40;11.05;;;6.55;;
7338;SDS011;33747;49.524;8.390;2024-03-02T10:17:06;8.40;;;6.05;;
7338;SDS011;33747;49.524;8.390;2024-03-02T10:19:33;9.15;;;5.93;;
7338;SDS011;33747;49.524;8.390;2024-03-02T10:22:02;9.35;;;5.88;;
7338;SDS011;33747;49.524;8.390;2024-03-02T10:24:34;7.68;;;5.72;;
7338;SDS011;33747;49.524;8.390;2024-03-02T10:27:02;8.10;;;6.28;;
7338;SDS011;33747;49.524;8.390;2024-03-02T10:29:31;9.00;;;5.85;;
7338;SDS011;33747;49.524;8.390;2024-03-02T10:31:57;8.45;;;5.50;;
7338;SDS011;33747;49.524;8.390;2024-03-02T10:34:24;8.15;;;5.13;;
7338;SDS011;33747;49.524;8.390;2024-03-02T10:36:49;7.57;;;5.50;;
7338;SDS011;33747;49.524;8.390;2024-03-02T10:39:15;7.43;;;5.55;;
7338;SDS011;33747;49.524;8.390;2024-03-02T10:41:40;8.80;;;4.82;;
7338;SDS011;33747;49.524;8.390;2024-03-02T10:44:06;5.35;;;4.75;;
7338;SDS011;33747;49.524;8.390;2024-03-02T10:46:33;6.00;;;5.13;;
7338;SDS011;33747;49.524;8.390;2024-03-02T10:49:01;6.38;;;4.57;;
7338;SDS011;33747;49.524;8.390;2024-03-02T10:51:27;5.65;;;5.07;;
7338;SDS011;33747;49.524;8.390;2024-03-02T10:53:56;5.57;;;4.82;;
7338;SDS011;33747;49.524;8.390;2024-03-02T10:56:29;7.60;;;5.00;;
7338;SDS011;33747;49.524;8.390;2024-03-02T10:59:17;6.90;;;4.88;;
7338;SDS011;33747;49.524;8.390;2024-03-02T11:01:51;7.03;;;5.05;;
7338;SDS011;33747;49.524;8.390;2024-03-02T11:04:20;8.60;;;6.30;;
7338;SDS011;33747;49.524;8.390;2024-03-02T11:06:48;8.55;;;5.40;;
7338;SDS011;33747;49.524;8.390;2024-03-02T11:09:14;5.20;;;4.70;;
7338;SDS011;33747;49.524;8.390;2024-03-02T11:11:42;8.68;;;5.50;;
7338;SDS011;33747;49.524;8.390;2024-03-02T11:14:13;7.20;;;4.70;;
7338;SDS011;33747;49.524;8.390;2024-03-02T11:16:39;8.80;;;4.85;;
7338;SDS011;33747;49.524;8.390;2024-03-02T11:19:07;8.38;;;4.72;;
7338;SDS011;33747;49.524;8.390;2024-03-02T11:21:35;7.15;;;4.63;;
7338;SDS011;33747;49.524;8.390;2024-03-02T11:24:17;5.03;;;4.50;;
7338;SDS011;33747;49.524;8.390;2024-03-02T11:26:47;6.78;;;5.32;;
7338;SDS011;33747;49.524;8.390;2024-03-02T11:29:46;7.03;;;4.25;;
7338;SDS011;33747;49.524;8.390;2024-03-02T11:32:05;8.68;;;4.00;;
7338;SDS011;33747;49.524;8.390;2024-03-02T11:34:34;3.47;;;3.17;;
7338;SDS011;33747;49.524;8.390;2024-03-02T11:37:02;6.15;;;3.00;;
7338;SDS011;33747;49.524;8.390;2024-03-02T11:39:28;2.78;;;2.40;;
7338;SDS011;33747;49.524;8.390;2024-03-02T11:41:57;3.45;;;2.78;;
7338;SDS011;33747;49.524;8.390;2024-03-02T11:44:24;2.00;;;1.80;;
7338;SDS011;33747;49.524;8.390;2024-03-02T11:47:00;3.45;;;2.67;;
7338;SDS011;33747;49.524;8.390;2024-03-02T11:49:38;3.10;;;2.80;;
7338;SDS011;33747;49.524;8.390;2024-03-02T11:52:09;6.80;;;2.83;;
7338;SDS011;33747;49.524;8.390;2024-03-02T11:54:36;2.05;;;1.80;;
7338;SDS011;33747;49.524;8.390;2024-03-02T11:57:04;2.75;;;1.70;;
7338;SDS011;33747;49.524;8.390;2024-03-02T11:59:30;1.95;;;1.85;;
7338;SDS011;33747;49.524;8.390;2024-03-02T12:01:56;2.13;;;1.70;;
7338;SDS011;33747;49.524;8.390;2024-03-02T12:04:22;2.33;;;1.73;;
7338;SDS011;33747;49.524;8.390;2024-03-02T12:06:48;6.32;;;1.67;;
7338;SDS011;33747;49.524;8.390;2024-03-02T12:09:20;2.60;;;2.00;;
7338;SDS011;33747;49.524;8.390;2024-03-02T12:11:46;1.50;;;1.40;;
7338;SDS011;33747;49.524;8.390;2024-03-02T12:14:11;1.42;;;1.33;;
7338;SDS011;33747;49.524;8.390;2024-03-02T12:16:37;3.25;;;1.30;;
7338;SDS011;33747;49.524;8.390;2024-03-02T12:19:04;4.25;;;1.20;;
7338;SDS011;33747;49.524;8.390;2024-03-02T12:21:31;1.67;;;1.58;;
7338;SDS011;33747;49.524;8.390;2024-03-02T12:23:58;5.07;;;1.70;;
7338;SDS011;33747;49.524;8.390;2024-03-02T12:26:23;1.30;;;1.20;;
7338;SDS011;33747;49.524;8.390;2024-03-02T12:28:49;2.15;;;1.40;;
7338;SDS011;33747;49.524;8.390;2024-03-02T12:31:14;2.83;;;1.92;;
7338;SDS011;33747;49.524;8.390;2024-03-02T12:33:40;5.78;;;2.30;;
7338;SDS011;33747;49.524;8.390;2024-03-02T12:36:09;2.85;;;1.42;;
7338;SDS011;33747;49.524;8.390;2024-03-02T12:38:34;1.65;;;1.38;;
7338;SDS011;33747;49.524;8.390;2024-03-02T12:41:00;1.30;;;1.20;;
7338;SDS011;33747;49.524;8.390;2024-03-02T12:43:29;2.08;;;1.48;;
7338;SDS011;33747;49.524;8.390;2024-03-02T12:45:55;1.30;;;1.20;;
7338;SDS011;33747;49.524;8.390;2024-03-02T12:48:21;2.13;;;1.20;;
7338;SDS011;33747;49.524;8.390;2024-03-02T12:50:46;1.08;;;1.08;;
7338;SDS011;33747;49.524;8.390;2024-03-02T12:53:15;3.03;;;1.00;;
7338;SDS011;33747;49.524;8.390;2024-03-02T12:55:43;1.38;;;1.13;;
7338;SDS011;33747;49.524;8.390;2024-03-02T12:58:16;1.25;;;1.02;;
7338;SDS011;33747;49.524;8.390;2024-03-02T13:00:47;2.70;;;0.80;;
7338;SDS011;33747;49.524;8.390;2024-03-02T13:03:13;1.35;;;1.25;;
7338;SDS011;33747;49.524;8.390;2024-03-02T13:05:39;1.10;;;1.10;;
7338;SDS011;33747;49.524;8.390;2024-03-02T13:08:05;1.00;;;1.00;;
7338;SDS011;33747;49.524;8.390;2024-03-02T13:10:34;1.33;;;1.15;;
7338;SDS011;33747;49.524;8.390;2024-03-02T13:13:00;0.80;;;0.80;;
7338;SDS011;33747;49.524;8.390;2024-03-02T13:15:26;3.63;;;1.33;;
7338;SDS011;33747;49.524;8.390;2024-03-02T13:17:52;1.60;;;1.00;;
7338;SDS011;33747;49.524;8.390;2024-03-02T13:20:17;1.45;;;0.80;;
7338;SDS011;33747;49.524;8.390;2024-03-02T13:22:44;1.67;;;1.40;;
7338;SDS011;33747;49.524;8.390;2024-03-02T13:25:12;3.13;;;0.98;;
7338;SDS011;33747;49.524;8.390;2024-03-02T13:27:37;2.75;;;1.67;;
7338;SDS011;33747;49.524;8.390;2024-03-02T13:30:03;4.57;;;1.10;;
7338;SDS011;33747;49.524;8.390;2024-03-02T13:32:30;1.75;;;1.23;;
7338;SDS011;33747;49.524;8.390;2024-03-02T13:34:56;4.38;;;1.15;;
7338;SDS011;33747;49.524;8.390;2024-03-02T13:37:21;1.33;;;1.10;;
7338;SDS011;33747;49.524;8.390;2024-03-02T13:39:47;1.00;;;1.00;;
7338;SDS011;33747;49.524;8.390;2024-03-02T13:42:12;1.00;;;0.90;;
7338;SDS011;33747;49.524;8.390;2024-03-02T13:44:40;0.98;;;0.85;;
7338;SDS011;33747;49.524;8.390;2024-03-02T13:47:07;1.02;;;0.93;;
7338;SDS011;33747;49.524;8.390;2024-03-02T13:49:32;0.85;;;0.85;;
7338;SDS011;33747;49.524;8.390;2024-03-02T13:52:07;0.80;;;0.80;;
7338;SDS011;33747;49.524;8.390;2024-03-02T13:54:42;1.92;;;0.82;;
7338;SDS011;33747;49.524;8.390;2024-03-02T13:57:10;0.80;;;0.80;;
7338;SDS011;33747;49.524;8.390;2024-03-02T13:59:36;0.98;;;0.93;;
7338;SDS011;33747;49.524;8.390;2024-03-02T14:02:01;0.82;;;0.82;;
7338;SDS011;33747;49.524;8.390;2024-03-02T14:04:29;2.95;;;0.90;;
7338;SDS011;33747;49.524;8.390;2024-03-02T14:06:54;2.20;;;1.45;;
7338;SDS011;33747;49.524;8.390;2024-03-02T14:09:21;2.45;;;1.38;;
7338;SDS011;33747;49.524;8.390;2024-03-02T14:11:46;2.08;;;1.23;;
7338;SDS011;33747;49.524;8.390;2024-03-02T14:14:12;1.58;;;0.95;;
7338;SDS011;33747;49.524;8.390;2024-03-02T14:16:37;1.90;;;1.00;;
7338;SDS011;33747;49.524;8.390;2024-03-02T14:19:02;1.75;;;1.63;;
7338;SDS011;33747;49.524;8.390;2024-03-02T14:21:29;3.70;;;2.03;;
7338;SDS011;33747;49.524;8.390;2024-03-02T14:23:56;1.40;;;1.13;;
7338;SDS011;33747;49.524;8.390;2024-03-02T14:26:22;2.03;;;1.42;;
7338;SDS011;33747;49.524;8.390;2024-03-02T14:28:48;2.03;;;1.63;;
7338;SDS011;33747;49.524;8.390;2024-03-02T14:31:13;2.60;;;1.63;;
7338;SDS011;33747;49.524;8.390;2024-03-02T14:33:39;2.42;;;1.70;;
7338;SDS011;33747;49.524;8.390;2024-03-02T14:36:06;1.83;;;1.40;;
7338;SDS011;33747;49.524;8.390;2024-03-02T14:38:31;4.13;;;1.60;;
7338;SDS011;33747;49.524;8.390;2024-03-02T14:40:57;3.78;;;1.95;;
7338;SDS011;33747;49.524;8.390;2024-03-02T14:43:22;1.85;;;1.75;;
7338;SDS011;33747;49.524;8.390;2024-03-02T14:45:48;6.07;;;1.55;;
7338;SDS011;33747;49.524;8.390;2024-03-02T14:48:13;2.10;;;1.77;;
7338;SDS011;33747;49.524;8.390;2024-03-02T14:50:39;2.03;;;1.83;;